Time;durP1;ratioP1;P1;durP2;ratioP2;P2;SDS_P1;SDS_P2;PMS_P1;PMS_P2;Temp;Humidity;BMP_temperature;BMP_pressure;BME280_temperature;BME280_humidity;BME280_pressure;Samples;Min_cycle;Max_cycle;Signal;HPM_P1;HPM_P2
2022/05/05 00:00:02;;;;;;;15.23;5.45;;;14.50;70.90;;;;;;616488;233;26523;-65
2022/05/05 00:02:29;;;;;;;16.62;5.03;;;14.40;72.70;;;;;;616175;233;26570;-62
2022/05/05 00:04:56;;;;;;;8.70;4.95;;;14.50;73.20;;;;;;620519;229;26545;-63
2022/05/05 00:07:23;;;;;;;9.20;4.30;;;14.40;73.10;;;;;;626480;228;26523;-63
2022/05/05 00:09:50;;;;;;;8.25;4.47;;;14.40;73.30;;;;;;625341;229;26804;-63
2022/05/05 00:14:51;;;;;;;4.85;4.25;;;14.40;73.00;;;;;;637392;226;26822;-63
2022/05/05 00:17:19;;;;;;;11.02;4.60;;;14.40;72.60;;;;;;625587;230;26578;-63
2022/05/05 00:19:47;;;;;;;6.60;4.20;;;14.40;74.50;;;;;;625365;230;26645;-63
2022/05/05 00:22:15;;;;;;;6.57;4.68;;;14.40;74.50;;;;;;625368;230;26666;-63
2022/05/05 00:24:43;;;;;;;4.65;3.80;;;14.40;74.60;;;;;;625401;230;26660;-63
2022/05/05 00:27:11;;;;;;;6.50;4.43;;;14.40;73.50;;;;;;625136;230;26551;-63
2022/05/05 00:29:38;;;;;;;4.68;4.25;;;14.40;73.40;;;;;;625132;230;26755;-63
2022/05/05 00:32:05;;;;;;;4.87;4.35;;;14.40;72.80;;;;;;625088;230;26578;-63
2022/05/05 00:34:33;;;;;;;4.37;3.97;;;14.40;71.40;;;;;;625108;230;26567;-63
2022/05/05 00:37:00;;;;;;;3.60;3.30;;;14.40;71.90;;;;;;625200;230;26773;-63
2022/05/05 00:39:27;;;;;;;8.20;4.07;;;14.40;70.70;;;;;;625189;230;26559;-63
2022/05/05 00:41:54;;;;;;;4.32;3.75;;;14.40;70.30;;;;;;625049;230;26798;-63
2022/05/05 00:44:22;;;;;;;4.07;3.78;;;14.40;70.30;;;;;;624966;230;26572;-63
2022/05/05 00:46:50;;;;;;;4.55;3.53;;;14.40;70.40;;;;;;624833;230;26563;-63
2022/05/05 00:49:18;;;;;;;4.12;3.83;;;14.40;70.00;;;;;;624750;230;26559;-63
2022/05/05 00:51:46;;;;;;;3.25;3.00;;;14.40;70.10;;;;;;624734;230;26595;-63
2022/05/05 00:54:13;;;;;;;3.90;3.70;;;14.40;70.10;;;;;;624830;230;26737;-63
2022/05/05 00:56:40;;;;;;;4.87;4.47;;;14.40;70.70;;;;;;624855;230;26555;-63
2022/05/05 00:59:08;;;;;;;5.53;3.70;;;14.30;72.10;;;;;;624817;228;26787;-63
2022/05/05 01:01:35;;;;;;;4.20;3.90;;;14.30;73.10;;;;;;624841;227;26555;-63
2022/05/05 01:04:03;;;;;;;4.20;3.90;;;14.30;74.40;;;;;;624819;230;26555;-63
2022/05/05 01:06:30;;;;;;;4.43;4.10;;;14.20;75.70;;;;;;625120;230;26617;-63
2022/05/05 01:08:57;;;;;;;6.93;4.30;;;14.10;78.00;;;;;;625203;230;26531;-63
2022/05/05 01:11:24;;;;;;;4.00;3.70;;;13.90;80.40;;;;;;625177;230;26780;-63
2022/05/05 01:13:51;;;;;;;4.10;3.80;;;13.70;81.90;;;;;;625192;230;26523;-62
2022/05/05 01:16:19;;;;;;;5.20;4.70;;;13.70;82.40;;;;;;625252;230;26978;-62
2022/05/05 01:18:46;;;;;;;3.80;3.53;;;13.60;83.20;;;;;;625547;228;26534;-62
2022/05/05 01:21:13;;;;;;;4.07;3.80;;;13.60;84.20;;;;;;626801;228;26824;-62
2022/05/05 01:23:40;;;;;;;4.80;4.45;;;13.50;84.10;;;;;;626338;230;26560;-63
2022/05/05 01:28:50;;;;;;;4.20;3.87;;;13.50;84.30;;;;;;617224;230;26595;-62
2022/05/05 01:31:18;;;;;;;4.55;3.97;;;13.50;84.40;;;;;;625417;228;26629;-62
2022/05/05 01:33:45;;;;;;;4.60;4.20;;;13.40;84.30;;;;;;625412;230;26879;-62
2022/05/05 01:36:13;;;;;;;4.28;3.97;;;13.40;84.70;;;;;;625434;229;26624;-63
2022/05/05 01:38:41;;;;;;;4.20;3.90;;;13.40;85.10;;;;;;625113;230;26910;-63
2022/05/05 01:41:08;;;;;;;3.83;3.53;;;13.30;85.40;;;;;;625165;229;26529;-63
2022/05/05 01:43:36;;;;;;;3.75;3.33;;;13.30;85.50;;;;;;624785;228;26552;-62
2022/05/05 01:46:03;;;;;;;3.53;3.28;;;13.30;85.40;;;;;;625119;230;26563;-62
2022/05/05 01:48:31;;;;;;;3.40;3.10;;;13.20;85.50;;;;;;625092;229;26576;-62
2022/05/05 01:50:59;;;;;;;3.30;3.05;;;13.10;85.90;;;;;;625076;230;26543;-62
2022/05/05 01:53:27;;;;;;;3.45;3.15;;;13.10;85.90;;;;;;625041;228;26591;-62
2022/05/05 01:55:54;;;;;;;3.53;3.22;;;13.10;85.90;;;;;;624943;230;26565;-62
2022/05/05 01:58:22;;;;;;;4.25;3.55;;;13.10;86.00;;;;;;624776;230;26793;-62
2022/05/05 02:00:48;;;;;;;3.33;3.08;;;13.20;86.10;;;;;;624794;230;26523;-62
2022/05/05 02:03:16;;;;;;;3.42;3.17;;;13.10;86.40;;;;;;624824;230;26819;-62
2022/05/05 02:05:43;;;;;;;3.67;3.37;;;13.10;87.00;;;;;;624917;230;26545;-62
2022/05/05 02:08:10;;;;;;;3.60;3.30;;;13.00;87.40;;;;;;624805;230;26956;-62
2022/05/05 02:10:37;;;;;;;3.92;3.20;;;13.00;87.80;;;;;;624861;230;26548;-62
2022/05/05 02:13:04;;;;;;;3.87;3.37;;;13.00;88.20;;;;;;624891;230;26780;-62
2022/05/05 02:15:34;;;;;;;4.80;3.60;;;12.90;88.60;;;;;;624948;230;26559;-62
2022/05/05 02:18:08;;;;;;;3.12;2.90;;;12.90;88.90;;;;;;624850;230;26555;-63
2022/05/05 02:20:35;;;;;;;4.22;3.30;;;12.90;88.90;;;;;;624827;230;26535;-63
2022/05/05 02:23:02;;;;;;;3.20;3.00;;;12.90;89.10;;;;;;624794;229;27227;-63
2022/05/05 02:25:29;;;;;;;3.28;2.97;;;12.90;89.60;;;;;;624820;230;26555;-62
2022/05/05 02:27:56;;;;;;;3.10;2.80;;;12.80;89.80;;;;;;624850;228;26793;-62
2022/05/05 02:30:24;;;;;;;6.28;3.67;;;12.90;90.10;;;;;;625136;228;26555;-62
2022/05/05 02:32:51;;;;;;;3.62;3.33;;;12.80;90.10;;;;;;626382;229;26830;-62
2022/05/05 02:35:19;;;;;;;3.12;2.92;;;12.70;90.70;;;;;;625963;230;26607;-62
2022/05/05 02:40:20;;;;;;;4.90;3.42;;;12.60;91.00;;;;;;625579;230;26911;-63
2022/05/05 02:42:47;;;;;;;3.50;3.20;;;12.50;91.40;;;;;;625384;230;26648;-66
2022/05/05 02:45:14;;;;;;;4.47;3.55;;;12.60;91.30;;;;;;625464;230;26820;-62
2022/05/05 02:47:41;;;;;;;4.50;3.00;;;12.50;91.70;;;;;;625483;230;26613;-63
2022/05/05 02:50:08;;;;;;;3.60;3.30;;;12.50;91.90;;;;;;625217;230;26851;-63
2022/05/05 02:52:36;;;;;;;3.28;3.08;;;12.50;92.10;;;;;;625066;230;26570;-62
2022/05/05 02:55:05;;;;;;;3.72;3.28;;;12.40;92.00;;;;;;625130;230;26571;-62
2022/05/05 02:57:32;;;;;;;3.30;3.08;;;12.40;92.30;;;;;;625097;230;26546;-62
2022/05/05 03:00:00;;;;;;;3.10;2.90;;;12.40;92.20;;;;;;625163;230;26805;-63
2022/05/05 03:02:29;;;;;;;3.12;2.85;;;12.40;92.40;;;;;;625113;227;26595;-63
2022/05/05 03:04:55;;;;;;;3.35;2.97;;;12.40;92.70;;;;;;625101;230;26799;-63
2022/05/05 03:07:22;;;;;;;3.35;2.90;;;12.40;92.80;;;;;;624934;230;26548;-63
2022/05/05 03:09:49;;;;;;;3.28;3.08;;;12.40;92.90;;;;;;624830;230;26846;-63
2022/05/05 03:12:16;;;;;;;3.37;3.03;;;12.30;92.90;;;;;;624833;226;26597;-62
2022/05/05 03:14:46;;;;;;;3.50;3.20;;;12.40;93.00;;;;;;624866;228;26805;-62
2022/05/05 03:17:11;;;;;;;3.67;3.37;;;12.30;93.30;;;;;;624989;230;26551;-62
2022/05/05 03:19:39;;;;;;;3.12;2.55;;;12.30;93.50;;;;;;624841;230;26571;-62
2022/05/05 03:22:07;;;;;;;3.83;3.22;;;12.30;93.40;;;;;;624823;227;26623;-63
2022/05/05 03:24:35;;;;;;;3.25;2.97;;;12.30;93.70;;;;;;624838;230;26553;-63
2022/05/05 03:27:04;;;;;;;3.25;3.00;;;12.30;93.70;;;;;;624813;230;26610;-63
2022/05/05 03:29:30;;;;;;;3.33;2.97;;;12.30;93.90;;;;;;624773;230;26544;-63
2022/05/05 03:31:58;;;;;;;3.37;2.90;;;12.30;94.00;;;;;;624817;226;26587;-63
2022/05/05 03:34:26;;;;;;;3.15;2.95;;;12.20;94.50;;;;;;624810;230;26567;-62
2022/05/05 03:36:54;;;;;;;3.20;2.90;;;12.20;94.80;;;;;;624821;230;26550;-62
2022/05/05 03:39:22;;;;;;;2.97;2.78;;;12.20;95.20;;;;;;624857;230;26570;-63
2022/05/05 03:41:50;;;;;;;2.87;2.67;;;12.20;95.00;;;;;;624972;228;26588;-62
2022/05/05 03:44:18;;;;;;;3.28;3.08;;;12.20;95.10;;;;;;626411;229;27195;-62
2022/05/05 03:46:45;;;;;;;3.70;3.40;;;12.10;95.10;;;;;;625948;230;26991;-62
2022/05/05 03:49:12;;;;;;;3.08;2.78;;;12.20;95.50;;;;;;625695;230;26555;-62
2022/05/05 03:51:39;;;;;;;2.83;2.65;;;12.20;95.60;;;;;;625601;227;26818;-63
2022/05/05 03:54:06;;;;;;;3.30;3.10;;;12.10;95.80;;;;;;625512;228;26578;-62
2022/05/05 03:56:34;;;;;;;3.53;3.20;;;12.10;96.00;;;;;;625494;229;26812;-63
2022/05/05 03:59:02;;;;;;;2.97;2.75;;;12.10;96.10;;;;;;625471;230;27277;-62
2022/05/05 04:01:29;;;;;;;3.62;2.62;;;12.10;96.50;;;;;;625145;230;26567;-63
2022/05/05 04:03:56;;;;;;;2.87;2.67;;;12.00;96.60;;;;;;625140;230;27210;-62
2022/05/05 04:06:24;;;;;;;2.70;2.50;;;12.10;96.20;;;;;;625170;230;26523;-62
2022/05/05 04:08:52;;;;;;;3.05;2.75;;;12.20;95.90;;;;;;625097;230;26529;-62
2022/05/05 04:11:20;;;;;;;3.08;2.83;;;12.20;95.80;;;;;;625076;229;26555;-62
2022/05/05 04:13:47;;;;;;;3.08;2.87;;;12.20;95.80;;;;;;625120;230;26558;-62
2022/05/05 04:16:15;;;;;;;3.10;2.67;;;12.20;96.30;;;;;;625123;230;26556;-63
2022/05/05 04:18:44;;;;;;;2.67;2.55;;;12.20;95.80;;;;;;624997;230;26766;-62
2022/05/05 04:21:10;;;;;;;3.10;2.87;;;12.30;95.80;;;;;;624767;230;26563;-62
2022/05/05 04:23:38;;;;;;;3.20;2.90;;;12.20;95.90;;;;;;624746;228;26577;-62
2022/05/05 04:26:05;;;;;;;3.50;3.25;;;12.20;96.20;;;;;;624739;230;26545;-63
2022/05/05 04:28:32;;;;;;;4.12;2.85;;;12.20;96.10;;;;;;624827;230;26556;-62
2022/05/05 04:31:00;;;;;;;2.70;2.50;;;12.20;96.00;;;;;;624807;230;26851;-62
2022/05/05 04:33:27;;;;;;;3.30;2.90;;;12.20;95.90;;;;;;624735;230;26654;-62
2022/05/05 04:35:54;;;;;;;3.17;2.87;;;12.20;95.60;;;;;;624863;230;26780;-62
2022/05/05 04:38:21;;;;;;;2.97;2.78;;;12.20;96.00;;;;;;624805;230;26567;-63
2022/05/05 04:40:49;;;;;;;3.90;3.10;;;12.20;95.80;;;;;;624842;230;26793;-62
2022/05/05 04:43:16;;;;;;;2.92;2.72;;;12.30;96.00;;;;;;624777;230;26583;-63
2022/05/05 04:45:43;;;;;;;3.47;3.20;;;12.20;95.60;;;;;;624880;230;26806;-62
2022/05/05 04:48:10;;;;;;;2.70;2.50;;;12.10;95.60;;;;;;624851;230;26551;-62
2022/05/05 04:50:37;;;;;;;3.17;2.87;;;12.10;95.70;;;;;;624778;230;26572;-62
2022/05/05 04:53:05;;;;;;;3.35;3.12;;;12.10;96.10;;;;;;624756;230;26646;-62
2022/05/05 04:55:33;;;;;;;3.67;3.37;;;12.00;96.10;;;;;;626550;228;26631;-63
2022/05/05 04:58:00;;;;;;;3.05;2.85;;;12.10;96.10;;;;;;626010;230;26596;-62
2022/05/05 05:00:29;;;;;;;3.30;3.00;;;12.20;96.20;;;;;;625731;230;26556;-62
2022/05/05 05:02:56;;;;;;;3.28;3.08;;;12.30;96.20;;;;;;625543;230;26580;-62
2022/05/05 05:05:24;;;;;;;3.50;3.22;;;12.40;96.00;;;;;;625406;230;26637;-62
2022/05/05 05:07:52;;;;;;;4.03;3.72;;;12.40;95.90;;;;;;625438;230;26635;-62
2022/05/05 05:10:20;;;;;;;2.70;2.50;;;12.40;96.00;;;;;;625423;230;26619;-62
2022/05/05 05:12:47;;;;;;;3.00;2.80;;;12.40;96.00;;;;;;625222;230;26973;-63
2022/05/05 05:15:14;;;;;;;3.35;2.87;;;12.50;95.80;;;;;;625052;230;26556;-63
2022/05/05 05:17:42;;;;;;;3.55;3.25;;;12.60;96.00;;;;;;625116;230;27198;-63
2022/05/05 05:20:09;;;;;;;4.12;3.83;;;12.50;95.70;;;;;;625080;230;26556;-62
2022/05/05 05:22:37;;;;;;;5.10;4.03;;;12.60;95.10;;;;;;625033;227;26580;-62
2022/05/05 05:25:04;;;;;;;4.25;3.85;;;12.50;95.50;;;;;;625115;230;26572;-63
2022/05/05 05:27:32;;;;;;;3.00;2.70;;;12.50;95.70;;;;;;625159;230;26527;-63
2022/05/05 05:30:00;;;;;;;3.37;3.17;;;12.40;95.60;;;;;;625033;228;26804;-62
2022/05/05 05:32:27;;;;;;;2.75;2.60;;;12.40;95.60;;;;;;624761;230;26833;-62
2022/05/05 05:34:54;;;;;;;2.60;2.50;;;12.50;95.50;;;;;;624688;230;26580;-62
2022/05/05 05:37:21;;;;;;;3.60;3.12;;;12.50;95.10;;;;;;624809;230;26797;-63
2022/05/05 05:39:48;;;;;;;4.40;3.53;;;12.50;95.30;;;;;;624763;230;26555;-62
2022/05/05 05:42:15;;;;;;;5.22;4.72;;;12.60;95.00;;;;;;624744;230;26539;-63
2022/05/05 05:44:43;;;;;;;3.87;3.05;;;12.60;95.00;;;;;;624841;230;26559;-63
2022/05/05 05:47:12;;;;;;;3.03;2.83;;;12.80;94.50;;;;;;624795;230;26554;-62
2022/05/05 05:49:39;;;;;;;3.47;3.20;;;12.80;94.70;;;;;;624787;228;26555;-63
2022/05/05 05:52:07;;;;;;;2.65;2.42;;;13.00;94.70;;;;;;624753;230;26583;-64
2022/05/05 05:54:35;;;;;;;2.65;2.55;;;12.90;94.40;;;;;;624800;230;26560;-63
2022/05/05 05:57:03;;;;;;;3.10;2.90;;;13.30;94.10;;;;;;624817;230;26564;-63
2022/05/05 05:59:30;;;;;;;3.50;3.20;;;13.30;94.10;;;;;;624852;230;26611;-63
2022/05/05 06:04:32;;;;;;;7.35;4.15;;;13.50;93.30;;;;;;624830;229;26567;-63
2022/05/05 06:07:00;;;;;;;2.80;2.60;;;13.40;93.30;;;;;;626442;228;26614;-63
2022/05/05 06:09:28;;;;;;;4.60;4.20;;;13.20;93.30;;;;;;625900;230;26663;-63
2022/05/05 06:11:56;;;;;;;4.60;4.20;;;13.10;93.40;;;;;;625656;230;26630;-63
2022/05/05 06:14:23;;;;;;;3.53;3.22;;;13.10;93.30;;;;;;625639;228;26568;-63
2022/05/05 06:16:50;;;;;;;2.87;2.67;;;13.10;93.50;;;;;;625558;230;26603;-62
2022/05/05 06:19:17;;;;;;;3.85;3.50;;;13.20;93.30;;;;;;625541;230;26936;-63
2022/05/05 06:21:44;;;;;;;4.55;4.15;;;13.20;93.30;;;;;;625427;230;26633;-63
2022/05/05 06:24:11;;;;;;;3.40;3.10;;;13.40;92.90;;;;;;625263;230;26821;-63
2022/05/05 06:26:39;;;;;;;4.32;3.92;;;13.50;92.80;;;;;;625071;229;26548;-62
2022/05/05 06:29:06;;;;;;;2.70;2.50;;;13.80;93.00;;;;;;625133;230;26794;-62
2022/05/05 06:31:33;;;;;;;2.80;2.58;;;14.30;92.10;;;;;;625033;227;26555;-63
2022/05/05 06:34:00;;;;;;;3.05;2.85;;;14.70;91.40;;;;;;625074;230;26849;-63
2022/05/05 06:36:28;;;;;;;3.05;2.85;;;15.40;89.50;;;;;;625142;230;26559;-62
2022/05/05 06:38:56;;;;;;;4.15;3.10;;;15.10;90.10;;;;;;625063;228;26547;-62
2022/05/05 06:41:26;;;;;;;5.43;4.82;;;14.90;89.40;;;;;;624907;230;26543;-63
2022/05/05 06:43:53;;;;;;;3.00;2.80;;;14.80;89.60;;;;;;624744;230;26579;-63
2022/05/05 06:46:21;;;;;;;2.75;2.55;;;14.80;90.20;;;;;;624800;228;26547;-63
2022/05/05 06:48:49;;;;;;;2.75;2.55;;;15.00;90.30;;;;;;624818;230;26559;-62
2022/05/05 06:51:18;;;;;;;3.05;2.67;;;15.20;88.70;;;;;;624781;230;26584;-63
2022/05/05 06:53:45;;;;;;;3.78;2.97;;;15.20;88.70;;;;;;624723;228;26578;-63
2022/05/05 06:56:12;;;;;;;3.40;3.20;;;15.10;88.10;;;;;;624747;230;26806;-63
2022/05/05 06:58:41;;;;;;;2.83;2.22;;;15.00;89.40;;;;;;624812;230;26571;-62
2022/05/05 07:03:42;;;;;;;4.40;3.75;;;15.30;88.30;;;;;;624902;227;26800;-62
2022/05/05 07:06:10;;;;;;;2.70;2.50;;;15.30;87.90;;;;;;624899;230;26563;-63
2022/05/05 07:11:10;;;;;;;4.03;3.62;;;15.40;86.50;;;;;;624848;230;26571;-63
2022/05/05 07:13:37;;;;;;;2.45;2.30;;;14.90;87.40;;;;;;624744;227;26867;-62
2022/05/05 07:16:04;;;;;;;2.10;2.00;;;15.00;88.50;;;;;;624810;230;26552;-64
2022/05/05 07:18:32;;;;;;;3.25;3.05;;;15.30;87.90;;;;;;626353;228;26775;-62
2022/05/05 07:20:59;;;;;;;3.87;3.58;;;15.50;86.80;;;;;;626049;230;26636;-62
2022/05/05 07:23:26;;;;;;;3.80;3.50;;;15.40;85.80;;;;;;625680;230;26826;-62
2022/05/05 07:25:54;;;;;;;2.47;2.25;;;15.20;86.20;;;;;;625668;230;26561;-62
2022/05/05 07:28:22;;;;;;;2.37;2.20;;;15.20;86.10;;;;;;625420;230;26633;-61
2022/05/05 07:30:51;;;;;;;2.55;2.35;;;15.00;86.90;;;;;;625438;229;26596;-62
2022/05/05 07:33:20;;;;;;;4.28;3.87;;;14.90;86.80;;;;;;625351;230;26655;-62
2022/05/05 07:35:47;;;;;;;2.58;2.40;;;14.80;86.60;;;;;;625216;230;26614;-62
2022/05/05 07:38:13;;;;;;;2.37;2.28;;;15.20;86.70;;;;;;624013;229;26898;-62
2022/05/05 07:40:40;;;;;;;2.12;2.03;;;15.20;87.00;;;;;;623758;229;26579;-63
2022/05/05 07:43:08;;;;;;;2.42;1.92;;;15.20;86.20;;;;;;619636;229;26843;-63
2022/05/05 07:45:35;;;;;;;3.83;2.40;;;15.10;86.90;;;;;;625056;229;26558;-63
2022/05/05 07:48:02;;;;;;;2.55;2.10;;;15.10;86.50;;;;;;622070;229;26804;-63
2022/05/05 07:50:29;;;;;;;2.75;2.17;;;14.70;86.60;;;;;;623479;229;26562;-63
2022/05/05 07:52:56;;;;;;;2.42;2.22;;;14.60;87.40;;;;;;623638;229;26738;-63
2022/05/05 07:55:24;;;;;;;3.78;2.45;;;14.90;87.00;;;;;;623919;230;26555;-63
2022/05/05 07:57:52;;;;;;;2.05;1.95;;;15.10;86.50;;;;;;622461;230;26557;-63
2022/05/05 08:00:21;;;;;;;2.50;2.30;;;15.00;86.60;;;;;;624313;228;26559;-63
2022/05/05 08:02:48;;;;;;;4.55;2.50;;;15.20;86.90;;;;;;621882;230;26658;-63
2022/05/05 08:05:15;;;;;;;2.70;2.47;;;15.10;86.10;;;;;;622014;230;26877;-63
2022/05/05 08:07:43;;;;;;;2.92;2.47;;;15.10;86.70;;;;;;622265;228;26635;-63
2022/05/05 08:10:11;;;;;;;2.67;2.45;;;15.30;86.30;;;;;;623431;230;26800;-63
2022/05/05 08:12:39;;;;;;;2.72;2.53;;;15.10;86.80;;;;;;623202;227;26578;-63
2022/05/05 08:15:08;;;;;;;2.42;2.15;;;15.20;86.40;;;;;;626063;228;26555;-63
2022/05/05 08:17:34;;;;;;;2.15;2.00;;;15.20;86.40;;;;;;624210;228;26562;-65
2022/05/05 08:20:02;;;;;;;13.40;3.22;;;15.60;86.20;;;;;;623085;228;26517;-64
2022/05/05 08:22:30;;;;;;;5.65;2.95;;;15.60;86.10;;;;;;625286;230;26595;-64
2022/05/05 08:30:05;;;;;;;3.92;2.90;;;15.60;84.80;;;;;;620365;229;26828;-63
2022/05/05 08:32:33;;;;;;;8.40;2.90;;;15.70;84.80;;;;;;626370;229;26862;-63
2022/05/05 08:35:01;;;;;;;4.90;3.08;;;15.50;84.80;;;;;;622572;228;26562;-62
2022/05/05 08:37:28;;;;;;;4.37;3.12;;;15.60;84.30;;;;;;624432;229;26568;-62
2022/05/05 08:39:55;;;;;;;3.80;2.87;;;15.60;84.60;;;;;;626839;229;26914;-63
2022/05/05 08:42:24;;;;;;;2.28;2.08;;;15.70;84.20;;;;;;624632;226;26611;-62
2022/05/05 08:44:49;;;;;;;5.75;2.78;;;15.70;84.40;;;;;;621822;229;26819;-62
2022/05/05 08:47:17;;;;;;;10.43;2.70;;;15.80;83.70;;;;;;621143;228;26518;-63
2022/05/05 08:49:44;;;;;;;5.37;2.90;;;15.90;83.50;;;;;;623666;230;26784;-63
2022/05/05 08:52:11;;;;;;;6.70;2.47;;;16.10;82.40;;;;;;625302;229;26576;-64
2022/05/05 08:54:38;;;;;;;3.65;2.97;;;16.30;82.10;;;;;;626579;229;26799;-63
2022/05/05 08:57:05;;;;;;;3.90;2.37;;;16.40;82.00;;;;;;621665;229;26567;-63
2022/05/05 08:59:33;;;;;;;3.78;2.53;;;16.20;80.20;;;;;;624153;229;26555;-63
2022/05/05 09:02:00;;;;;;;6.70;2.92;;;16.10;79.90;;;;;;625291;229;26841;-63
2022/05/05 09:04:28;;;;;;;3.33;3.03;;;16.20;79.50;;;;;;626506;229;26555;-63
2022/05/05 09:06:55;;;;;;;5.53;2.75;;;16.20;79.00;;;;;;625567;230;26812;-63
2022/05/05 09:09:32;;;;;;;4.50;2.67;;;16.30;79.80;;;;;;625744;228;26559;-63
2022/05/05 09:12:12;;;;;;;5.55;2.72;;;16.20;79.50;;;;;;618469;230;26853;-63
2022/05/05 09:14:39;;;;;;;3.00;2.70;;;16.20;79.40;;;;;;620378;230;26799;-66
2022/05/05 09:17:06;;;;;;;6.95;2.67;;;16.30;79.80;;;;;;625930;229;26766;-64
2022/05/05 09:19:34;;;;;;;4.25;2.55;;;16.40;79.60;;;;;;621180;230;26588;-63
2022/05/05 09:22:01;;;;;;;5.30;2.80;;;16.50;78.90;;;;;;625028;230;26558;-63
2022/05/05 09:27:13;;;;;;;4.00;2.58;;;16.30;79.10;;;;;;624539;230;26572;-62
2022/05/05 09:29:40;;;;;;;2.83;2.53;;;16.10;78.60;;;;;;624889;230;26603;-62
2022/05/05 09:32:12;;;;;;;4.55;2.80;;;16.10;78.10;;;;;;625336;230;26553;-66
2022/05/05 09:34:40;;;;;;;5.20;2.90;;;15.90;78.00;;;;;;621191;230;26626;-66
2022/05/05 09:37:17;;;;;;;2.85;2.60;;;16.30;77.40;;;;;;624630;230;26606;-66
2022/05/05 09:39:44;;;;;;;6.60;3.42;;;16.30;77.40;;;;;;622915;229;26824;-67
2022/05/05 09:42:12;;;;;;;6.22;3.37;;;16.70;74.30;;;;;;622684;229;26582;-63
2022/05/05 09:44:45;;;;;;;3.78;2.75;;;16.90;74.00;;;;;;625714;229;26572;-63
2022/05/05 09:47:15;;;;;;;7.03;2.83;;;16.90;74.10;;;;;;626813;229;26586;-64
2022/05/05 09:49:41;;;;;;;2.80;2.60;;;16.90;74.10;;;;;;619669;230;26582;-64
2022/05/05 09:59:49;;;;;;;4.25;2.58;;;16.50;71.90;;;;;;624204;229;26573;-64
2022/05/05 10:04:00;;;;;;;2.72;2.53;;;16.70;71.70;;;;;;621622;229;26931;-64
2022/05/05 10:04:49;;;;;;;4.45;2.90;;;16.90;71.70;;;;;;620209;229;26562;-64
2022/05/05 10:07:17;;;;;;;3.17;2.80;;;16.90;72.30;;;;;;625307;229;27219;-64
2022/05/05 10:09:45;;;;;;;3.28;2.60;;;17.00;72.70;;;;;;623448;230;26586;-64
2022/05/05 10:12:14;;;;;;;5.22;2.58;;;17.30;72.00;;;;;;621476;226;26819;-65
2022/05/05 10:14:39;;;;;;;3.85;2.78;;;17.30;69.80;;;;;;621111;229;26799;-65
2022/05/05 10:17:06;;;;;;;5.55;2.80;;;17.50;67.90;;;;;;624561;229;26804;-64
2022/05/05 10:19:33;;;;;;;2.60;2.40;;;17.70;67.70;;;;;;623720;230;26644;-64
2022/05/05 10:22:04;;;;;;;2.97;2.10;;;18.10;67.70;;;;;;617469;233;26844;-64
2022/05/05 10:24:31;;;;;;;2.50;2.30;;;18.20;67.60;;;;;;621276;230;26606;-64
2022/05/05 10:26:58;;;;;;;3.67;2.60;;;18.40;66.60;;;;;;619303;230;26847;-64
2022/05/05 10:29:34;;;;;;;3.08;2.70;;;18.60;65.90;;;;;;622445;230;26653;-64
2022/05/05 10:32:06;;;;;;;3.60;2.60;;;18.40;67.40;;;;;;625114;230;26832;-64
2022/05/05 10:34:34;;;;;;;3.87;2.70;;;18.50;66.10;;;;;;617197;233;26876;-64
2022/05/05 10:37:04;;;;;;;2.70;2.50;;;18.60;66.60;;;;;;617284;233;26606;-64
2022/05/05 10:39:42;;;;;;;4.57;2.62;;;18.60;65.50;;;;;;625845;230;26699;-64
2022/05/05 10:42:15;;;;;;;4.97;2.50;;;18.50;64.30;;;;;;622587;230;26630;-66
2022/05/05 10:44:54;;;;;;;75.22;15.07;;;18.80;64.30;;;;;;621827;230;26631;-65
2022/05/05 10:47:21;;;;;;;358.02;45.85;;;19.20;63.50;;;;;;626127;228;27139;-63
2022/05/05 10:49:48;;;;;;;1999.90;368.98;;;19.30;64.30;;;;;;626192;230;26554;-66
2022/05/05 10:52:30;;;;;;;1999.90;326.15;;;19.30;66.50;;;;;;623170;228;26874;-64
2022/05/05 10:54:57;;;;;;;793.65;58.65;;;18.90;65.70;;;;;;618558;232;26839;-63
2022/05/05 10:57:40;;;;;;;62.72;15.35;;;18.70;65.00;;;;;;622271;229;26566;-63
2022/05/05 11:00:14;;;;;;;20.75;12.75;;;18.50;65.60;;;;;;626101;229;26527;-62
2022/05/05 11:02:56;;;;;;;15.18;10.32;;;18.50;64.90;;;;;;625684;230;26626;-63
2022/05/05 11:05:27;;;;;;;20.08;11.73;;;18.40;64.70;;;;;;623061;230;26811;-63
2022/05/05 11:08:28;;;;;;;14.32;9.82;;;18.80;66.10;;;;;;625737;230;26573;-62
2022/05/05 11:13:35;;;;;;;15.38;8.88;;;19.50;64.30;;;;;;625542;230;26836;-62
2022/05/05 11:23:57;;;;;;;25.55;15.15;;;20.50;58.80;;;;;;625149;230;26558;-63
2022/05/05 11:26:25;;;;;;;17.62;11.25;;;20.00;59.80;;;;;;625169;230;27204;-63
2022/05/05 11:28:52;;;;;;;16.98;10.70;;;20.10;60.50;;;;;;624891;230;26535;-63
2022/05/05 11:31:22;;;;;;;10.88;7.87;;;19.90;58.60;;;;;;624856;230;26799;-63
2022/05/05 11:33:53;;;;;;;7.47;6.05;;;19.90;58.60;;;;;;624846;230;26581;-63
2022/05/05 11:36:20;;;;;;;4.37;3.90;;;19.90;58.40;;;;;;624876;230;26812;-77
2022/05/05 11:38:47;;;;;;;3.15;2.90;;;20.00;58.30;;;;;;624898;230;26561;-78
2022/05/05 11:41:19;;;;;;;4.65;3.30;;;20.20;61.20;;;;;;624867;230;26749;-77
2022/05/05 11:46:19;;;;;;;3.83;3.08;;;20.70;57.50;;;;;;624869;230;26579;-77
2022/05/05 11:48:52;;;;;;;10.45;5.70;;;20.60;59.70;;;;;;624782;230;26811;-79
2022/05/05 11:51:21;;;;;;;10.40;4.82;;;19.50;57.20;;;;;;624819;230;26549;-79
2022/05/05 11:53:49;;;;;;;3.53;3.22;;;19.00;57.90;;;;;;624892;230;26559;-78
2022/05/05 11:56:17;;;;;;;8.07;4.82;;;19.00;57.90;;;;;;624848;230;26559;-78
2022/05/05 12:03:49;;;;;;;6.47;4.37;;;18.90;58.90;;;;;;625784;228;26776;-78
2022/05/05 12:06:16;;;;;;;7.20;4.00;;;19.00;58.90;;;;;;626014;230;26611;-79
2022/05/05 12:08:44;;;;;;;4.07;3.30;;;19.30;58.90;;;;;;625801;230;26822;-79
2022/05/05 12:11:11;;;;;;;7.43;4.30;;;19.20;58.60;;;;;;625780;230;26554;-78
2022/05/05 12:13:38;;;;;;;4.97;3.70;;;19.50;58.50;;;;;;625513;230;26837;-77
2022/05/05 12:16:06;;;;;;;7.22;4.03;;;19.80;58.10;;;;;;625437;230;26582;-77
2022/05/05 12:18:33;;;;;;;25.10;7.78;;;19.70;57.20;;;;;;625471;230;26790;-80
2022/05/05 12:21:00;;;;;;;22.00;7.75;;;19.90;57.10;;;;;;625399;230;26604;-77
2022/05/05 12:23:28;;;;;;;24.08;7.68;;;19.90;56.50;;;;;;625065;230;26868;-77
2022/05/05 12:25:55;;;;;;;10.05;6.25;;;19.70;56.70;;;;;;625112;230;26555;-77
2022/05/05 12:28:28;;;;;;;24.55;8.07;;;19.80;57.10;;;;;;625117;230;26806;-78
2022/05/05 12:30:49;;;;;;;69.43;14.20;;;20.20;56.50;;;;;;625039;230;26656;-79
2022/05/05 12:33:17;;;;;;;82.22;18.12;;;20.60;55.90;;;;;;625071;230;26825;-78
2022/05/05 12:35:43;;;;;;;47.17;12.48;;;20.90;55.20;;;;;;625038;230;26567;-77
2022/05/05 12:38:11;;;;;;;20.55;7.12;;;21.10;55.60;;;;;;625150;230;26768;-80
2022/05/05 12:40:40;;;;;;;29.05;7.70;;;21.40;54.90;;;;;;624792;230;26555;-79
2022/05/05 12:43:13;;;;;;;8.40;4.20;;;21.50;54.20;;;;;;624572;230;26938;-80
2022/05/05 12:45:40;;;;;;;10.50;4.82;;;21.50;53.60;;;;;;624820;230;26524;-80
2022/05/05 12:48:10;;;;;;;6.07;3.37;;;22.50;54.30;;;;;;624170;230;26822;-81
2022/05/05 12:50:43;;;;;;;7.43;3.92;;;22.30;52.00;;;;;;625822;230;26560;-80
2022/05/05 13:00:51;;;;;;;10.77;3.78;;;21.10;52.80;;;;;;624588;230;26838;-81
2022/05/05 13:03:21;;;;;;;8.25;3.40;;;21.20;53.00;;;;;;626157;228;26563;-80
2022/05/05 13:05:46;;;;;;;5.62;3.22;;;21.40;53.20;;;;;;621788;230;26791;-79
2022/05/05 13:08:13;;;;;;;6.93;3.92;;;21.40;52.50;;;;;;620631;230;26645;-78
2022/05/05 13:10:40;;;;;;;5.57;3.55;;;21.40;53.00;;;;;;625450;230;26575;-79
2022/05/05 13:13:08;;;;;;;10.57;3.20;;;22.50;50.60;;;;;;617603;230;26677;-79
2022/05/05 13:15:36;;;;;;;8.05;3.50;;;22.50;50.60;;;;;;622259;229;26622;-80
2022/05/05 13:18:05;;;;;;;6.20;3.30;;;22.20;50.50;;;;;;627116;229;26602;-77
2022/05/05 13:20:31;;;;;;;4.12;3.25;;;22.20;50.50;;;;;;620019;229;26567;-80
2022/05/05 13:22:58;;;;;;;7.95;3.70;;;21.90;50.10;;;;;;626208;229;26583;-78
2022/05/05 13:25:26;;;;;;;5.30;3.37;;;21.30;50.70;;;;;;625874;229;26611;-77
2022/05/05 13:27:54;;;;;;;8.70;3.42;;;21.40;50.70;;;;;;626623;229;26608;-79
2022/05/05 13:30:22;;;;;;;4.80;3.00;;;21.40;50.80;;;;;;621536;228;26626;-76
2022/05/05 13:32:50;;;;;;;7.55;3.40;;;21.40;50.70;;;;;;621039;229;26588;-77
2022/05/05 13:35:18;;;;;;;4.00;2.87;;;21.40;50.70;;;;;;620487;229;26808;-78
2022/05/05 13:37:46;;;;;;;4.90;3.17;;;21.90;51.40;;;;;;621857;229;26576;-78
2022/05/05 13:40:13;;;;;;;2.70;2.50;;;21.60;49.60;;;;;;623615;229;26572;-75
2022/05/05 13:42:40;;;;;;;6.78;2.97;;;21.70;49.70;;;;;;624995;229;26837;-79
2022/05/05 13:45:08;;;;;;;5.45;3.15;;;21.70;50.00;;;;;;625183;230;26556;-78